Time;durP1;ratioP1;P1;durP2;ratioP2;P2;SDS_P1;SDS_P2;PMS_P1;PMS_P2;Temp;Humidity;BMP_temperature;BMP_pressure;BME280_temperature;BME280_humidity;BME280_pressure;Samples;Min_cycle;Max_cycle;Signal;HPM_P1;HPM_P2
2022/11/22 00:00:34;;;;;;;11.00;5.38;;;;;;;5.95;100.00;99050.22;4988252;28;20120;-74
2022/11/22 00:03:00;;;;;;;11.20;5.10;;;;;;;5.96;100.00;99060.88;4990688;28;20506;-74
2022/11/22 00:05:25;;;;;;;11.70;6.03;;;;;;;5.95;100.00;99055.63;5003116;28;20026;-74
2022/11/22 00:07:51;;;;;;;7.63;4.07;;;;;;;5.96;100.00;99052.78;5006326;28;20044;-74
2022/11/22 00:10:16;;;;;;;9.20;5.32;;;;;;;5.98;100.00;99041.88;5005914;28;20409;-74
2022/11/22 00:12:42;;;;;;;12.35;4.35;;;;;;;5.99;100.00;99041.75;4988426;28;20125;-74
2022/11/22 00:15:08;;;;;;;7.78;4.38;;;;;;;5.98;100.00;99033.78;4970782;28;20096;-75
2022/11/22 00:17:34;;;;;;;9.93;4.63;;;;;;;5.97;100.00;99045.53;4988242;28;20145;-75
2022/11/22 00:19:59;;;;;;;12.68;5.70;;;;;;;5.96;100.00;99047.38;4995317;28;20122;-74
2022/11/22 00:22:25;;;;;;;12.48;5.00;;;;;;;5.96;100.00;99044.69;4986642;28;20038;-74
2022/11/22 00:24:51;;;;;;;9.10;4.80;;;;;;;5.96;100.00;99039.28;4988577;28;20406;-74
2022/11/22 00:27:17;;;;;;;10.13;4.45;;;;;;;5.97;100.00;99043.72;5003145;28;20135;-75
2022/11/22 00:29:43;;;;;;;12.00;4.85;;;;;;;5.95;100.00;99036.72;4995563;28;20041;-74
2022/11/22 00:32:08;;;;;;;15.48;4.63;;;;;;;5.98;100.00;99034.63;5005116;28;20022;-74
2022/11/22 00:34:33;;;;;;;11.95;5.15;;;;;;;5.96;100.00;99039.28;5000685;28;20034;-74
2022/11/22 00:36:59;;;;;;;7.38;4.60;;;;;;;5.93;100.00;99036.00;4986632;28;20030;-74
2022/11/22 00:39:24;;;;;;;10.13;4.30;;;;;;;5.93;100.00;99046.81;4999180;28;20065;-74
2022/11/22 00:41:49;;;;;;;13.27;4.70;;;;;;;5.93;100.00;99042.25;4986591;28;20026;-74
2022/11/22 00:44:15;;;;;;;11.27;5.47;;;;;;;5.91;100.00;99044.19;5002090;28;20111;-74
2022/11/22 00:46:40;;;;;;;14.45;5.20;;;;;;;5.92;100.00;99045.06;5000550;28;20064;-74
2022/11/22 00:49:05;;;;;;;9.85;4.95;;;;;;;5.88;100.00;99037.22;5005188;28;20092;-74
2022/11/22 00:51:31;;;;;;;18.42;5.30;;;;;;;5.78;100.00;99032.66;4969944;28;20112;-74
2022/11/22 00:53:56;;;;;;;13.98;5.00;;;;;;;5.80;100.00;99039.66;4986280;28;20033;-74
2022/11/22 00:56:21;;;;;;;10.13;4.80;;;;;;;5.73;100.00;99030.34;4988246;28;20482;-74
2022/11/22 00:58:47;;;;;;;12.30;4.75;;;;;;;5.71;100.00;99040.41;4986454;28;20030;-75
2022/11/22 01:01:12;;;;;;;14.38;4.80;;;;;;;5.67;100.00;99040.78;4999341;28;20034;-74
2022/11/22 01:03:38;;;;;;;8.00;4.30;;;;;;;5.62;100.00;99039.31;4985907;28;20030;-74
2022/11/22 01:06:03;;;;;;;9.32;4.10;;;;;;;5.56;100.00;99041.69;5002421;28;20030;-74
2022/11/22 01:08:28;;;;;;;7.38;4.30;;;;;;;5.47;100.00;99029.78;5002034;28;20050;-74
2022/11/22 01:10:56;;;;;;;11.27;4.63;;;;;;;5.44;100.00;99035.41;4990992;28;20026;-74
2022/11/22 01:13:21;;;;;;;8.02;4.43;;;;;;;5.40;100.00;99047.44;4987851;28;20446;-75
2022/11/22 01:15:46;;;;;;;15.13;4.78;;;;;;;5.31;100.00;99040.94;4987682;28;20123;-74
2022/11/22 01:18:12;;;;;;;11.90;4.18;;;;;;;5.28;100.00;99041.19;4986470;28;20030;-73
2022/11/22 01:20:39;;;;;;;9.13;3.95;;;;;;;5.22;100.00;99047.09;4987415;28;20133;-74
2022/11/22 01:23:04;;;;;;;8.95;3.25;;;;;;;5.16;100.00;99047.53;4985454;28;20165;-74
2022/11/22 01:25:30;;;;;;;13.18;3.88;;;;;;;5.12;100.00;99048.75;4986251;28;20581;-74
2022/11/22 01:27:55;;;;;;;13.57;4.20;;;;;;;5.11;100.00;99047.06;4989594;28;20547;-74
2022/11/22 01:30:20;;;;;;;10.20;3.45;;;;;;;5.10;100.00;99053.44;5001615;28;20129;-75
2022/11/22 01:32:46;;;;;;;5.68;3.33;;;;;;;5.04;100.00;99046.69;4986381;28;20085;-74
2022/11/22 01:35:11;;;;;;;5.35;3.08;;;;;;;5.00;100.00;99045.22;4986217;28;20061;-74
2022/11/22 01:37:36;;;;;;;7.88;3.17;;;;;;;4.99;100.00;99051.59;4986866;28;20045;-74
2022/11/22 01:40:02;;;;;;;11.15;3.28;;;;;;;4.98;100.00;99047.16;4985859;28;20038;-74
2022/11/22 01:42:49;;;;;;;21.42;4.47;;;;;;;4.92;100.00;99050.34;4985689;28;20476;-74
2022/11/22 01:45:30;;;;;;;7.75;3.10;;;;;;;4.88;100.00;99059.63;4969871;28;20132;-74
2022/11/22 01:48:24;;;;;;;7.30;2.80;;;;;;;4.85;100.00;99070.66;4986887;28;20506;-75
2022/11/22 01:50:57;;;;;;;14.80;3.25;;;;;;;4.81;100.00;99064.66;4986950;28;20493;-73
2022/11/22 01:53:30;;;;;;;9.13;3.15;;;;;;;4.82;100.00;99065.50;4987348;28;20039;-74
2022/11/22 01:55:58;;;;;;;13.23;2.92;;;;;;;4.77;100.00;99073.94;4986429;28;20541;-75
2022/11/22 01:58:28;;;;;;;9.23;2.78;;;;;;;4.78;100.00;99077.50;4986115;28;20034;-73
2022/11/22 02:00:54;;;;;;;7.10;3.75;;;;;;;4.78;100.00;99072.09;4987577;28;20110;-75
2022/11/22 02:03:21;;;;;;;18.30;3.70;;;;;;;4.78;100.00;99070.25;4997095;28;20382;-74
2022/11/22 02:05:47;;;;;;;6.47;2.33;;;;;;;4.81;100.00;99071.88;4986592;28;20057;-74
2022/11/22 02:08:13;;;;;;;13.98;3.55;;;;;;;4.81;100.00;99066.50;4986542;28;20069;-74
2022/11/22 02:10:43;;;;;;;7.97;2.92;;;;;;;4.85;100.00;99073.34;4990506;28;20034;-74
2022/11/22 02:13:09;;;;;;;12.18;3.33;;;;;;;4.83;100.00;99078.00;5006167;28;20833;-75
2022/11/22 02:15:35;;;;;;;12.52;3.05;;;;;;;4.85;100.00;99082.28;5003626;28;20432;-74
2022/11/22 02:18:00;;;;;;;12.85;2.97;;;;;;;4.85;100.00;99089.53;4987152;28;20081;-74
2022/11/22 02:20:25;;;;;;;11.45;2.95;;;;;;;4.83;100.00;99088.75;5001608;28;20048;-75
2022/11/22 02:23:06;;;;;;;9.18;2.50;;;;;;;4.82;100.00;99085.22;5006679;28;20038;-74
2022/11/22 02:25:40;;;;;;;22.67;4.28;;;;;;;4.82;100.00;99074.44;5001398;28;20036;-74
2022/11/22 02:28:08;;;;;;;12.57;2.97;;;;;;;4.75;100.00;99086.66;4985272;28;20122;-74
2022/11/22 02:30:35;;;;;;;14.40;2.65;;;;;;;4.75;100.00;99085.78;4971564;28;20048;-74
2022/11/22 02:33:00;;;;;;;19.30;4.50;;;;;;;4.75;100.00;99091.19;5002877;28;20018;-74
2022/11/22 02:35:28;;;;;;;12.93;3.08;;;;;;;4.75;100.00;99093.88;4989540;28;20536;-75
2022/11/22 02:38:00;;;;;;;15.20;3.15;;;;;;;4.75;100.00;99093.88;4988815;28;20032;-74
2022/11/22 02:40:28;;;;;;;10.68;2.90;;;;;;;4.73;100.00;99093.16;4989594;28;20093;-74
2022/11/22 02:42:58;;;;;;;19.65;2.83;;;;;;;4.70;100.00;99083.44;4995058;28;20389;-75
2022/11/22 02:45:24;;;;;;;21.33;2.90;;;;;;;4.70;100.00;99088.84;4995498;28;20044;-75
2022/11/22 02:47:49;;;;;;;12.45;2.67;;;;;;;4.64;100.00;99080.38;4990065;28;20022;-75
2022/11/22 02:50:14;;;;;;;13.70;2.58;;;;;;;4.65;100.00;99082.94;4989103;28;20034;-74
2022/11/22 02:52:40;;;;;;;15.55;4.05;;;;;;;4.62;100.00;99083.19;4989552;28;20446;-74
2022/11/22 02:55:06;;;;;;;9.75;2.85;;;;;;;4.59;100.00;99100.44;4989780;28;20425;-74
2022/11/22 02:57:31;;;;;;;8.95;2.72;;;;;;;4.58;100.00;99101.41;4989826;28;20101;-74
2022/11/22 02:59:57;;;;;;;15.43;2.80;;;;;;;4.59;100.00;99103.13;5004828;28;20038;-74
2022/11/22 03:02:22;;;;;;;15.13;3.20;;;;;;;4.57;100.00;99109.63;4984167;28;20038;-74
2022/11/22 03:04:47;;;;;;;14.48;2.85;;;;;;;4.53;100.00;99092.84;4988865;28;20062;-74
2022/11/22 03:07:13;;;;;;;14.05;2.63;;;;;;;4.52;100.00;99098.31;4971741;28;20104;-74
2022/11/22 03:09:38;;;;;;;21.15;2.78;;;;;;;4.47;100.00;99095.97;4989472;28;20113;-75
2022/11/22 03:12:04;;;;;;;16.42;2.50;;;;;;;4.48;100.00;99097.72;4990041;28;20050;-74
2022/11/22 03:14:29;;;;;;;11.80;2.45;;;;;;;4.47;100.00;99105.88;4988088;28;20042;-75
2022/11/22 03:16:54;;;;;;;10.90;2.45;;;;;;;4.40;100.00;99110.88;4989792;28;20057;-75
2022/11/22 03:19:20;;;;;;;15.38;2.60;;;;;;;4.41;100.00;99119.81;4977491;28;20033;-75
2022/11/22 03:21:45;;;;;;;7.90;1.73;;;;;;;4.35;100.00;99121.16;4987607;28;20482;-76
2022/11/22 03:24:11;;;;;;;10.27;2.05;;;;;;;4.32;100.00;99124.06;4987887;28;20478;-76
2022/11/22 03:26:37;;;;;;;9.43;1.98;;;;;;;4.30;100.00;99126.88;4989571;28;20564;-76
2022/11/22 03:29:03;;;;;;;15.85;2.63;;;;;;;4.27;100.00;99118.16;5004030;28;20049;-75
2022/11/22 03:31:28;;;;;;;11.40;2.17;;;;;;;4.21;100.00;99122.16;4992718;28;20536;-75
2022/11/22 03:33:54;;;;;;;12.80;2.47;;;;;;;4.17;100.00;99127.88;5004765;28;20425;-74
2022/11/22 03:36:19;;;;;;;9.02;2.63;;;;;;;4.11;100.00;99121.13;4988880;28;20113;-74
2022/11/22 03:38:45;;;;;;;13.30;2.10;;;;;;;4.06;100.00;99117.94;4987615;28;20879;-75
2022/11/22 03:41:10;;;;;;;6.47;2.28;;;;;;;4.07;100.00;99127.72;4988353;28;20204;-75
2022/11/22 03:43:36;;;;;;;23.27;3.63;;;;;;;4.06;100.00;99126.00;4988746;28;20027;-75
2022/11/22 03:46:02;;;;;;;13.23;3.13;;;;;;;3.99;100.00;99122.88;4989135;28;20484;-74
2022/11/22 03:48:27;;;;;;;13.80;2.42;;;;;;;3.96;100.00;99128.47;4987624;28;20113;-75
2022/11/22 03:50:53;;;;;;;15.27;2.10;;;;;;;3.90;100.00;99123.56;4989100;28;20120;-74
2022/11/22 03:53:18;;;;;;;12.38;2.05;;;;;;;3.89;100.00;99131.75;4988503;28;20437;-74
2022/11/22 03:55:43;;;;;;;11.85;2.20;;;;;;;3.83;100.00;99124.97;4994924;28;20375;-75
2022/11/22 03:58:09;;;;;;;12.07;2.10;;;;;;;3.78;100.00;99130.69;4987253;28;20553;-75
2022/11/22 04:00:35;;;;;;;13.38;3.58;;;;;;;3.75;100.00;99135.44;4982903;28;20034;-75
2022/11/22 04:03:00;;;;;;;15.43;2.97;;;;;;;3.76;100.00;99139.81;4987460;28;20042;-75
2022/11/22 04:05:26;;;;;;;14.13;2.00;;;;;;;3.70;100.00;99137.59;4988631;28;20022;-76
2022/11/22 04:07:57;;;;;;;9.45;2.22;;;;;;;3.69;100.00;99135.88;4987067;28;20042;-75
2022/11/22 04:10:23;;;;;;;20.42;2.88;;;;;;;3.67;100.00;99135.09;4987784;28;20514;-74
2022/11/22 04:12:49;;;;;;;22.02;3.25;;;;;;;3.67;100.00;99129.72;5003572;28;20498;-75
2022/11/22 04:15:14;;;;;;;9.50;2.60;;;;;;;3.67;100.00;99138.66;5002305;28;20072;-74
2022/11/22 04:17:43;;;;;;;22.35;2.50;;;;;;;3.66;100.00;99155.75;4988470;28;20038;-75
2022/11/22 04:23:15;;;;;;;14.48;2.55;;;;;;;3.61;100.00;99166.00;4987536;28;20125;-74
2022/11/22 04:25:44;;;;;;;12.38;2.67;;;;;;;3.54;100.00;99173.63;4986982;28;20382;-74
2022/11/22 04:28:10;;;;;;;8.18;2.58;;;;;;;3.52;100.00;99174.69;4986533;28;20046;-75
2022/11/22 04:33:20;;;;;;;15.13;2.42;;;;;;;3.45;100.00;99162.66;4987553;28;20109;-75
2022/11/22 04:35:46;;;;;;;19.60;2.78;;;;;;;3.41;100.00;99161.16;4987882;28;20048;-75
2022/11/22 04:38:13;;;;;;;10.88;2.00;;;;;;;3.39;100.00;99155.03;4987984;28;20105;-75
2022/11/22 04:40:39;;;;;;;16.15;2.80;;;;;;;3.41;100.00;99161.16;4987417;28;20037;-75
2022/11/22 04:45:50;;;;;;;11.05;2.72;;;;;;;3.36;100.00;99164.19;5004261;28;20108;-75
2022/11/22 04:48:16;;;;;;;9.18;2.28;;;;;;;3.34;100.00;99166.09;4987717;28;20084;-75
2022/11/22 04:53:28;;;;;;;8.20;1.85;;;;;;;3.31;100.00;99159.13;4986406;28;20046;-75
2022/11/22 04:55:53;;;;;;;11.43;2.50;;;;;;;3.29;100.00;99170.94;4986590;28;20354;-74
2022/11/22 04:58:19;;;;;;;8.15;1.90;;;;;;;3.27;100.00;99167.50;4986089;28;20042;-74
2022/11/22 05:00:45;;;;;;;18.38;2.90;;;;;;;3.28;100.00;99171.91;4970283;28;20068;-75
2022/11/22 05:03:11;;;;;;;14.43;2.30;;;;;;;3.26;100.00;99177.41;4986315;28;20414;-75
2022/11/22 05:05:39;;;;;;;9.55;2.25;;;;;;;3.25;100.00;99177.47;5001316;28;20029;-76
2022/11/22 05:08:06;;;;;;;13.60;2.30;;;;;;;3.18;100.00;99171.69;5005264;28;20038;-75
2022/11/22 05:10:55;;;;;;;14.35;2.13;;;;;;;3.15;100.00;99174.56;5003734;28;20062;-74
2022/11/22 05:13:20;;;;;;;13.25;2.20;;;;;;;3.10;100.00;99181.22;4987436;28;20062;-75
2022/11/22 05:15:45;;;;;;;11.90;2.35;;;;;;;3.09;100.00;99184.91;4995090;28;20065;-74
2022/11/22 05:18:11;;;;;;;15.30;2.03;;;;;;;3.09;100.00;99182.22;4987855;28;20018;-75
2022/11/22 05:20:36;;;;;;;6.97;2.13;;;;;;;3.04;100.00;99179.84;4998024;28;20421;-75
2022/11/22 05:25:46;;;;;;;7.93;2.55;;;;;;;2.95;100.00;99173.25;4989220;28;20393;-75
2022/11/22 05:28:11;;;;;;;8.80;2.13;;;;;;;2.98;100.00;99182.91;5004148;28;20133;-75
2022/11/22 05:30:38;;;;;;;12.00;2.45;;;;;;;2.90;100.00;99167.34;5002354;28;20110;-75
2022/11/22 05:33:03;;;;;;;8.60;2.17;;;;;;;2.93;100.00;99182.38;4987352;28;20125;-74
2022/11/22 05:35:28;;;;;;;13.85;2.35;;;;;;;2.86;100.00;99179.25;4989473;28;20205;-75
2022/11/22 05:37:55;;;;;;;11.50;1.95;;;;;;;2.88;100.00;99179.13;4989143;28;20136;-74
2022/11/22 05:40:21;;;;;;;16.42;2.90;;;;;;;2.85;100.00;99171.31;5004203;28;20034;-75
2022/11/22 05:42:46;;;;;;;8.52;2.13;;;;;;;2.80;100.00;99175.16;4985968;28;20034;-76
2022/11/22 05:45:12;;;;;;;7.72;2.13;;;;;;;2.74;100.00;99178.25;4987080;28;20039;-76
2022/11/22 05:47:37;;;;;;;7.05;2.22;;;;;;;2.74;100.00;99172.00;5000769;28;20486;-76
2022/11/22 05:50:03;;;;;;;13.77;2.17;;;;;;;2.74;100.00;99167.50;4992619;28;20121;-75
2022/11/22 05:52:28;;;;;;;7.70;1.73;;;;;;;2.73;100.00;99168.47;4984984;28;20421;-75
2022/11/22 05:54:54;;;;;;;12.40;2.72;;;;;;;2.73;100.00;99173.84;4969858;28;20046;-74
2022/11/22 05:57:19;;;;;;;7.15;1.83;;;;;;;2.75;100.00;99173.72;4985615;28;20464;-74
2022/11/22 05:59:44;;;;;;;11.05;2.53;;;;;;;2.73;100.00;99160.41;4996180;28;20405;-75
2022/11/22 06:02:10;;;;;;;27.38;3.10;;;;;;;2.81;100.00;99159.91;4984808;28;20044;-75
2022/11/22 06:04:35;;;;;;;5.43;2.10;;;;;;;2.81;100.00;99157.22;4998668;28;20044;-75
2022/11/22 06:07:01;;;;;;;11.63;2.53;;;;;;;2.78;100.00;99165.47;5005118;28;20065;-75
2022/11/22 06:09:26;;;;;;;13.52;2.55;;;;;;;2.77;100.00;99178.03;4991031;28;20092;-76
2022/11/22 06:11:51;;;;;;;9.63;2.53;;;;;;;2.72;100.00;99163.22;5004396;28;20050;-75
2022/11/22 06:14:17;;;;;;;13.27;2.53;;;;;;;2.73;100.00;99173.84;5005879;28;20577;-75
2022/11/22 06:16:42;;;;;;;11.30;2.35;;;;;;;2.64;100.00;99170.91;4990943;28;20042;-74
2022/11/22 06:19:07;;;;;;;10.48;2.15;;;;;;;2.65;100.00;99176.16;4990550;28;20061;-74
2022/11/22 06:21:33;;;;;;;11.45;2.22;;;;;;;2.63;100.00;99180.78;4989082;28;20041;-75
2022/11/22 06:23:58;;;;;;;12.38;2.53;;;;;;;2.61;100.00;99177.38;5005559;28;20019;-74
2022/11/22 06:26:25;;;;;;;4.25;2.00;;;;;;;2.60;100.00;99182.81;4991232;28;20533;-75
2022/11/22 06:28:50;;;;;;;11.10;2.55;;;;;;;2.57;100.00;99191.94;4996893;28;20052;-75
2022/11/22 06:31:21;;;;;;;9.80;3.20;;;;;;;2.57;100.00;99185.72;4998249;28;20486;-75
2022/11/22 06:33:47;;;;;;;15.27;2.35;;;;;;;2.55;100.00;99183.13;4997852;28;20029;-75
2022/11/22 06:36:16;;;;;;;7.90;2.28;;;;;;;2.54;100.00;99178.72;5003839;28;20385;-74
2022/11/22 06:38:42;;;;;;;9.52;2.50;;;;;;;2.51;100.00;99186.97;5001009;28;20064;-74
2022/11/22 06:41:10;;;;;;;11.80;2.30;;;;;;;2.52;100.00;99183.34;4975550;28;20042;-75
2022/11/22 06:43:37;;;;;;;13.20;2.70;;;;;;;2.52;100.00;99194.94;4995050;28;20443;-75
2022/11/22 06:46:04;;;;;;;13.10;2.67;;;;;;;2.53;100.00;99195.78;4990636;28;20481;-75
2022/11/22 06:48:32;;;;;;;11.68;2.60;;;;;;;2.54;100.00;99198.38;4988753;28;20121;-75
2022/11/22 06:51:06;;;;;;;21.73;3.05;;;;;;;2.60;100.00;99202.47;4989047;28;20524;-75
2022/11/22 06:53:33;;;;;;;14.27;2.58;;;;;;;2.63;100.00;99198.72;4988200;28;20037;-74
2022/11/22 06:56:10;;;;;;;7.35;2.47;;;;;;;2.71;100.00;99202.63;4988566;28;20076;-75
2022/11/22 06:58:36;;;;;;;8.25;2.30;;;;;;;2.79;100.00;99210.16;4988437;28;20501;-75
2022/11/22 07:01:04;;;;;;;6.57;2.35;;;;;;;2.84;100.00;99212.53;4989929;28;20080;-75
2022/11/22 07:03:29;;;;;;;13.15;3.08;;;;;;;2.90;100.00;99218.38;4997562;28;20040;-75
2022/11/22 07:05:55;;;;;;;7.00;2.50;;;;;;;2.95;100.00;99213.56;5005535;28;20982;-75
2022/11/22 07:08:21;;;;;;;18.13;2.92;;;;;;;3.00;100.00;99218.59;5006773;28;20080;-76
2022/11/22 07:10:47;;;;;;;14.63;2.78;;;;;;;3.10;100.00;99224.22;4979761;28;20137;-76
2022/11/22 07:13:12;;;;;;;9.02;2.83;;;;;;;3.13;100.00;99224.88;5004946;28;20529;-75
2022/11/22 07:15:37;;;;;;;10.35;2.58;;;;;;;3.18;100.00;99221.88;5005662;28;20458;-75
2022/11/22 07:18:04;;;;;;;8.80;2.17;;;;;;;3.26;100.00;99223.09;5001580;28;20057;-75
2022/11/22 07:20:29;;;;;;;7.70;2.65;;;;;;;3.30;100.00;99227.25;4984950;28;20035;-75
2022/11/22 07:22:54;;;;;;;14.38;2.33;;;;;;;3.35;100.00;99226.94;5007786;28;20114;-76
2022/11/22 07:25:20;;;;;;;6.82;2.40;;;;;;;3.41;100.00;99223.00;5006954;28;20323;-75
2022/11/22 07:27:45;;;;;;;10.52;2.50;;;;;;;3.44;100.00;99220.94;4989654;28;20089;-75
2022/11/22 07:30:11;;;;;;;16.63;2.88;;;;;;;3.46;100.00;99220.84;4987938;28;20097;-75
2022/11/22 07:32:37;;;;;;;10.50;2.83;;;;;;;3.48;100.00;99225.13;4988057;28;20038;-75
2022/11/22 07:35:02;;;;;;;9.82;3.40;;;;;;;3.52;100.00;99232.00;4989154;28;20034;-75
2022/11/22 07:37:30;;;;;;;9.23;2.45;;;;;;;3.55;100.00;99223.75;4987151;28;20097;-75
2022/11/22 07:39:55;;;;;;;11.18;2.97;;;;;;;3.57;100.00;99231.69;4989775;28;20042;-74
2022/11/22 07:42:21;;;;;;;14.40;3.35;;;;;;;3.61;100.00;99232.34;4988805;28;20096;-74
2022/11/22 07:44:47;;;;;;;19.90;2.97;;;;;;;3.66;100.00;99233.75;4987847;28;20034;-75
2022/11/22 07:47:12;;;;;;;14.88;2.83;;;;;;;3.71;100.00;99236.13;4989223;28;20422;-75
2022/11/22 07:49:38;;;;;;;12.60;2.75;;;;;;;3.73;100.00;99231.47;4994958;28;20121;-75
2022/11/22 07:52:04;;;;;;;8.18;2.30;;;;;;;3.76;100.00;99229.44;5001193;28;20038;-75
2022/11/22 07:54:30;;;;;;;8.98;2.53;;;;;;;3.80;100.00;99222.03;5006987;28;20457;-75
2022/11/22 07:56:55;;;;;;;7.60;2.67;;;;;;;3.82;100.00;99218.25;4981678;28;20040;-75
2022/11/22 07:59:21;;;;;;;8.07;2.83;;;;;;;3.88;100.00;99237.63;4995114;28;20025;-75
2022/11/22 08:01:46;;;;;;;12.48;2.30;;;;;;;3.91;100.00;99232.88;5002099;28;20109;-75
2022/11/22 08:04:11;;;;;;;9.85;2.78;;;;;;;3.93;100.00;99224.72;4975610;28;20034;-75
2022/11/22 08:06:37;;;;;;;11.05;2.58;;;;;;;3.98;100.00;99231.47;4986008;28;20782;-75
2022/11/22 08:09:02;;;;;;;5.85;2.13;;;;;;;4.01;100.00;99236.66;5003913;28;20081;-74
2022/11/22 08:11:28;;;;;;;8.85;2.63;;;;;;;4.04;100.00;99233.72;5002230;28;20061;-75
2022/11/22 08:13:53;;;;;;;7.20;2.47;;;;;;;4.04;100.00;99224.78;4987496;28;20461;-75
2022/11/22 08:16:18;;;;;;;13.82;2.40;;;;;;;4.11;100.00;99236.00;4988197;28;20092;-74
2022/11/22 08:18:48;;;;;;;9.82;2.22;;;;;;;4.15;100.00;99232.06;4989027;28;20038;-75
2022/11/22 08:21:15;;;;;;;11.10;2.05;;;;;;;4.18;100.00;99232.72;5002822;28;20466;-74
2022/11/22 08:23:41;;;;;;;8.15;2.30;;;;;;;4.23;100.00;99232.41;4986712;28;20052;-75
2022/11/22 08:26:11;;;;;;;15.98;3.05;;;;;;;4.26;100.00;99233.03;4983435;28;20065;-74
2022/11/22 08:28:36;;;;;;;7.40;2.55;;;;;;;4.30;100.00;99231.84;4986401;28;20045;-75
2022/11/22 08:31:05;;;;;;;5.80;2.30;;;;;;;4.34;100.00;99240.56;4988433;28;20486;-75
2022/11/22 08:33:30;;;;;;;7.57;2.10;;;;;;;4.37;100.00;99236.78;4986472;28;20061;-75
2022/11/22 08:35:56;;;;;;;6.10;2.22;;;;;;;4.38;100.00;99235.81;4988065;28;20498;-77
2022/11/22 08:38:21;;;;;;;8.60;3.40;;;;;;;4.40;100.00;99240.13;5003174;28;20038;-76
2022/11/22 08:40:47;;;;;;;7.30;2.50;;;;;;;4.41;100.00;99235.59;4982905;28;20065;-75
2022/11/22 08:43:12;;;;;;;5.07;1.95;;;;;;;4.44;100.00;99230.84;5007497;28;20145;-74
2022/11/22 08:45:38;;;;;;;8.48;2.08;;;;;;;4.47;100.00;99237.81;5005538;28;20046;-75
2022/11/22 08:48:03;;;;;;;12.73;2.30;;;;;;;4.51;100.00;99242.00;4988056;28;20029;-75
2022/11/22 08:50:28;;;;;;;8.57;2.15;;;;;;;4.54;100.00;99250.75;4987809;28;20042;-75
2022/11/22 08:52:54;;;;;;;12.60;2.67;;;;;;;4.61;100.00;99240.34;4970219;28;20520;-75
2022/11/22 08:55:19;;;;;;;7.13;1.98;;;;;;;4.65;100.00;99239.16;4986560;28;20038;-76
2022/11/22 08:57:44;;;;;;;5.90;1.90;;;;;;;4.70;100.00;99241.50;5002114;28;20493;-76
2022/11/22 09:00:10;;;;;;;8.32;2.20;;;;;;;4.74;100.00;99251.09;5002772;28;20489;-75
2022/11/22 09:02:36;;;;;;;9.25;3.08;;;;;;;4.77;100.00;99240.09;4987478;28;20517;-74
2022/11/22 09:05:01;;;;;;;12.75;2.67;;;;;;;4.81;100.00;99247.84;5000722;28;20670;-74
2022/11/22 09:07:28;;;;;;;8.57;2.53;;;;;;;4.85;100.00;99252.03;4986914;28;20104;-75
2022/11/22 09:09:54;;;;;;;10.77;2.47;;;;;;;4.89;100.00;99251.78;4988255;28;20033;-75
2022/11/22 09:12:19;;;;;;;7.63;2.00;;;;;;;4.90;100.00;99253.53;4999220;28;20505;-75
2022/11/22 09:14:44;;;;;;;6.65;2.22;;;;;;;4.93;100.00;99258.66;4986096;28;20034;-74
2022/11/22 09:17:10;;;;;;;7.47;1.73;;;;;;;4.98;100.00;99260.03;5002073;28;20041;-74
2022/11/22 09:19:35;;;;;;;9.55;3.33;;;;;;;5.01;100.00;99257.13;4990798;28;20042;-74
2022/11/22 09:22:00;;;;;;;8.88;2.30;;;;;;;5.05;100.00;99260.47;4986480;28;20026;-75
2022/11/22 09:24:26;;;;;;;5.03;2.10;;;;;;;5.05;99.63;99242.44;4986404;28;20375;-76
2022/11/22 09:26:51;;;;;;;7.57;2.35;;;;;;;5.10;100.00;99253.75;4994752;28;20034;-75
2022/11/22 09:29:16;;;;;;;6.65;2.00;;;;;;;5.15;99.94;99258.78;4985998;28;20129;-74
2022/11/22 09:31:42;;;;;;;9.38;2.45;;;;;;;5.22;100.00;99257.34;4985750;28;20171;-74
2022/11/22 09:34:07;;;;;;;6.70;2.35;;;;;;;5.29;100.00;99258.59;4987081;28;20030;-74
2022/11/22 09:36:33;;;;;;;6.38;2.47;;;;;;;5.34;99.94;99269.88;4986057;28;20042;-76
2022/11/22 09:38:58;;;;;;;4.22;1.63;;;;;;;5.41;100.00;99262.19;5001829;28;20034;-75
2022/11/22 09:41:44;;;;;;;7.25;2.45;;;;;;;5.48;100.00;99251.78;5000220;28;20030;-74
2022/11/22 09:44:12;;;;;;;9.10;2.20;;;;;;;5.55;99.35;99258.44;4986763;28;20046;-74
2022/11/22 09:46:49;;;;;;;9.32;2.58;;;;;;;5.60;99.46;99270.59;4987285;28;20034;-74
2022/11/22 09:49:28;;;;;;;6.13;2.33;;;;;;;5.62;99.22;99263.22;4994181;28;20497;-74
2022/11/22 09:52:07;;;;;;;4.03;2.05;;;;;;;5.65;98.43;99262.13;4986985;28;20494;-75
2022/11/22 09:54:41;;;;;;;11.85;2.33;;;;;;;5.68;98.72;99248.41;5001205;28;20506;-74
2022/11/22 09:57:17;;;;;;;5.88;2.20;;;;;;;5.73;98.24;99256.13;4991324;28;20644;-74
2022/11/22 09:59:46;;;;;;;8.25;2.45;;;;;;;5.79;98.96;99261.94;4985624;28;20493;-74
2022/11/22 10:02:15;;;;;;;7.35;2.58;;;;;;;5.82;97.91;99266.19;4985834;28;20030;-74
2022/11/22 10:04:46;;;;;;;5.57;2.13;;;;;;;5.86;97.83;99268.53;4987157;28;20038;-75
2022/11/22 10:07:20;;;;;;;6.43;2.00;;;;;;;5.86;96.96;99273.94;5001560;28;20050;-75
2022/11/22 10:10:01;;;;;;;3.85;1.77;;;;;;;5.90;96.26;99271.88;5002202;28;20945;-74
2022/11/22 10:12:55;;;;;;;4.80;1.40;;;;;;;5.89;95.73;99267.47;4987061;28;20054;-75
2022/11/22 10:15:34;;;;;;;;;;;;;;;5.89;96.91;99276.41;4989532;28;20034;-74
2022/11/22 10:18:18;;;;;;;7.28;2.05;;;;;;;5.86;95.88;99265.84;4985020;28;20344;-74
2022/11/22 10:20:43;;;;;;;4.93;1.38;;;;;;;5.87;96.96;99262.19;4986684;28;20031;-74
2022/11/22 10:23:21;;;;;;;7.57;2.03;;;;;;;5.89;96.43;99257.53;4985072;28;20064;-74
2022/11/22 10:26:03;;;;;;;3.70;1.42;;;;;;;5.92;97.21;99253.72;4969243;28;20030;-74
2022/11/22 10:28:48;;;;;;;5.53;1.63;;;;;;;5.95;95.27;99256.19;4986590;28;20038;-73
2022/11/22 10:31:21;;;;;;;6.88;1.90;;;;;;;5.96;96.99;99263.31;4986649;28;20034;-73
2022/11/22 10:34:03;;;;;;;8.02;1.83;;;;;;;5.95;96.21;99252.66;4987146;28;20046;-74
2022/11/22 10:36:47;;;;;;;4.45;1.65;;;;;;;5.96;97.29;99241.72;4968802;28;20048;-75
2022/11/22 10:39:21;;;;;;;8.50;1.67;;;;;;;5.93;96.96;99250.06;4986838;28;20069;-74
2022/11/22 10:42:13;;;;;;;4.95;1.75;;;;;;;6.01;97.42;99250.31;4986516;28;20489;-75
2022/11/22 10:44:46;;;;;;;10.02;1.95;;;;;;;6.07;97.35;99235.50;4969107;28;20457;-74
2022/11/22 10:47:31;;;;;;;2.10;1.50;;;;;;;6.11;97.50;99245.91;4978014;28;20042;-75
2022/11/22 10:50:03;;;;;;;3.25;1.80;;;;;;;6.14;96.30;99247.50;4978657;28;20037;-75
2022/11/22 10:52:32;;;;;;;6.00;2.08;;;;;;;6.13;96.33;99243.09;5006142;28;20073;-73
2022/11/22 10:55:17;;;;;;;6.00;2.03;;;;;;;6.17;95.99;99235.59;5008520;28;20496;-74
2022/11/22 10:57:46;;;;;;;6.90;2.25;;;;;;;6.20;96.48;99238.94;5007031;28;20484;-75
2022/11/22 11:00:23;;;;;;;5.07;1.60;;;;;;;6.19;95.76;99236.34;5008433;28;20113;-74
2022/11/22 11:03:18;;;;;;;6.70;1.80;;;;;;;6.27;96.60;99233.88;4989450;28;20165;-74
2022/11/22 11:05:52;;;;;;;7.45;2.20;;;;;;;6.32;96.01;99234.38;4988754;28;20034;-75
2022/11/22 11:08:31;;;;;;;2.70;1.73;;;;;;;6.37;95.86;99232.16;4989239;28;20346;-74
2022/11/22 11:10:57;;;;;;;4.03;1.60;;;;;;;6.39;95.40;99228.34;4989324;28;20030;-75
2022/11/22 11:13:26;;;;;;;2.65;1.52;;;;;;;6.40;95.00;99223.81;4972782;28;20172;-74
2022/11/22 11:15:56;;;;;;;2.53;1.40;;;;;;;6.43;94.41;99214.56;4988811;28;20509;-74
2022/11/22 11:18:35;;;;;;;1.90;1.40;;;;;;;6.45;94.52;99215.34;4990159;28;20038;-74
2022/11/22 11:21:00;;;;;;;3.00;1.42;;;;;;;6.44;94.55;99214.47;4989358;28;20436;-73
2022/11/22 11:23:26;;;;;;;2.58;1.40;;;;;;;6.45;94.31;99209.94;5004671;28;20116;-75
2022/11/22 11:25:51;;;;;;;3.17;1.58;;;;;;;6.45;93.70;99196.41;4972647;28;20025;-74
2022/11/22 11:28:27;;;;;;;1.75;1.35;;;;;;;6.48;94.08;99206.94;4987770;28;20437;-74
2022/11/22 11:31:09;;;;;;;2.92;1.45;;;;;;;6.46;93.10;99201.69;4989213;28;20030;-73
2022/11/22 11:33:37;;;;;;;1.58;1.10;;;;;;;6.46;93.25;99198.13;4988043;28;20067;-74
2022/11/22 11:36:02;;;;;;;3.20;1.60;;;;;;;6.47;92.83;99202.53;4988942;28;20089;-73
2022/11/22 11:38:34;;;;;;;4.95;1.48;;;;;;;6.52;92.85;99192.22;4971384;28;20038;-74
2022/11/22 11:41:24;;;;;;;3.65;1.30;;;;;;;6.57;93.46;99198.09;4989166;28;20137;-73
2022/11/22 11:43:52;;;;;;;4.70;1.17;;;;;;;6.57;92.21;99201.66;4988054;28;20481;-74
2022/11/22 11:46:20;;;;;;;2.08;1.40;;;;;;;6.58;92.99;99195.28;4988547;28;20018;-74
2022/11/22 11:48:47;;;;;;;4.53;1.23;;;;;;;6.58;91.80;99202.53;4989396;28;20093;-73